createdAt,value
2023-03-20T00:01:02.126Z,3.23
2023-03-20T00:03:30.715Z,3.23
2023-03-20T00:05:59.223Z,3.10
2023-03-20T00:08:29.730Z,2.70
2023-03-20T00:10:58.307Z,3.53
2023-03-20T00:13:29.429Z,2.40
2023-03-20T00:15:58.040Z,3.13
2023-03-20T00:18:29.399Z,3.00
2023-03-20T00:20:57.951Z,2.80
2023-03-20T00:23:27.214Z,3.00
2023-03-20T00:25:56.067Z,3.00
2023-03-20T00:28:40.981Z,3.13
2023-03-20T00:31:19.592Z,3.13
2023-03-20T00:33:49.758Z,3.00
2023-03-20T00:36:18.127Z,3.23
2023-03-20T00:38:46.776Z,3.50
2023-03-20T00:41:24.995Z,2.70
2023-03-20T00:43:56.531Z,3.47
2023-03-20T00:46:26.088Z,3.80
2023-03-20T00:48:57.058Z,3.27
2023-03-20T00:51:25.779Z,3.00
2023-03-20T00:53:54.349Z,3.60
2023-03-20T00:56:39.018Z,3.10
2023-03-20T00:59:08.056Z,3.10
2023-03-20T01:01:36.886Z,3.43
2023-03-20T01:04:13.658Z,4.00
2023-03-20T01:06:42.347Z,3.60
2023-03-20T01:09:11.245Z,3.23
2023-03-20T01:11:41.183Z,3.67
2023-03-20T01:14:15.676Z,3.97
2023-03-20T01:16:44.453Z,3.33
2023-03-20T01:19:17.344Z,3.10
2023-03-20T01:21:46.097Z,3.67
2023-03-20T01:24:14.453Z,3.67
2023-03-20T01:26:44.726Z,3.57
2023-03-20T01:29:20.239Z,3.27
2023-03-20T01:31:48.949Z,3.27
2023-03-20T01:34:19.499Z,3.70
2023-03-20T01:36:51.345Z,3.03
2023-03-20T01:39:21.840Z,3.20
2023-03-20T01:41:51.022Z,3.70
2023-03-20T01:44:23.113Z,3.20
2023-03-20T01:46:53.955Z,3.30
2023-03-20T01:49:59.485Z,3.50
2023-03-20T01:52:29.232Z,3.10
2023-03-20T01:54:57.718Z,3.70
2023-03-20T01:57:27.306Z,3.67
2023-03-20T02:00:01.818Z,3.60
2023-03-20T02:02:32.909Z,3.47
2023-03-20T02:05:06.184Z,3.60
2023-03-20T02:07:38.183Z,4.00
2023-03-20T02:10:09.860Z,4.43
2023-03-20T02:12:39.465Z,3.70
2023-03-20T02:15:09.382Z,3.83
2023-03-20T02:17:37.660Z,3.93
2023-03-20T02:20:15.403Z,3.87
2023-03-20T02:23:16.162Z,3.70
2023-03-20T02:26:05.007Z,3.77
2023-03-20T02:29:07.586Z,3.70
2023-03-20T02:32:08.750Z,3.90
2023-03-20T02:35:20.987Z,3.90
2023-03-20T02:38:10.166Z,4.03
2023-03-20T02:40:48.733Z,3.60
2023-03-20T02:43:24.424Z,3.80
2023-03-20T02:45:59.820Z,4.37
2023-03-20T02:48:41.103Z,3.97
2023-03-20T02:51:17.361Z,4.53
2023-03-20T02:53:54.008Z,4.40
2023-03-20T02:56:30.204Z,4.00
2023-03-20T02:59:09.239Z,3.80
2023-03-20T03:01:42.832Z,4.33
2023-03-20T03:04:15.397Z,4.97
2023-03-20T03:06:47.874Z,4.13
2023-03-20T03:09:22.733Z,4.40
2023-03-20T03:11:54.827Z,4.40
2023-03-20T03:14:33.907Z,3.93
2023-03-20T03:17:04.701Z,4.30
2023-03-20T03:19:35.764Z,4.07
2023-03-20T03:22:04.668Z,3.93
2023-03-20T03:24:41.135Z,4.77
2023-03-20T03:27:22.729Z,4.67
2023-03-20T03:29:55.663Z,4.83
2023-03-20T03:32:29.400Z,4.40
2023-03-20T03:34:58.654Z,4.77
2023-03-20T03:37:37.465Z,4.20
2023-03-20T03:40:17.762Z,5.27
2023-03-20T03:42:52.294Z,5.03
2023-03-20T03:45:24.633Z,4.60
2023-03-20T03:47:57.421Z,5.10
2023-03-20T03:50:29.542Z,4.87
2023-03-20T03:53:01.670Z,5.10
2023-03-20T03:55:37.264Z,5.20
2023-03-20T03:58:10.109Z,5.30
2023-03-20T04:00:42.566Z,5.30
2023-03-20T04:03:12.215Z,5.37
2023-03-20T04:05:45.061Z,4.43
2023-03-20T04:08:16.291Z,4.90
2023-03-20T04:10:46.128Z,5.33
2023-03-20T04:13:14.373Z,5.07
2023-03-20T04:15:42.630Z,5.50
2023-03-20T04:18:16.590Z,5.73
2023-03-20T04:20:45.530Z,5.67
2023-03-20T04:23:13.907Z,5.40
2023-03-20T04:25:42.666Z,5.80
2023-03-20T04:28:16.322Z,6.33
2023-03-20T04:30:48.314Z,6.83
2023-03-20T04:33:16.648Z,7.17
2023-03-20T04:35:45.135Z,7.13
2023-03-20T04:38:13.501Z,6.57
2023-03-20T04:40:41.790Z,7.33
2023-03-20T04:43:11.632Z,6.67
2023-03-20T04:45:40.076Z,7.00
2023-03-20T04:48:08.914Z,6.43
2023-03-20T04:50:37.328Z,6.67
2023-03-20T04:53:05.847Z,6.40
2023-03-20T04:55:34.376Z,6.43
2023-03-20T04:58:02.992Z,7.13
2023-03-20T05:00:32.818Z,7.60
2023-03-20T05:03:01.541Z,9.53
2023-03-20T05:05:29.594Z,9.20
2023-03-20T05:07:58.231Z,9.50
2023-03-20T05:10:26.306Z,7.50
2023-03-20T05:12:54.415Z,8.57
2023-03-20T05:15:22.438Z,8.60
2023-03-20T05:17:52.001Z,8.10
2023-03-20T05:20:20.476Z,7.70
2023-03-20T05:22:50.751Z,9.23
2023-03-20T05:25:19.394Z,9.40
2023-03-20T05:27:48.147Z,10.20
2023-03-20T05:30:16.815Z,9.80
2023-03-20T05:32:44.875Z,10.30
2023-03-20T05:35:14.320Z,9.53
2023-03-20T05:37:42.504Z,9.70
2023-03-20T05:40:13.500Z,9.07
2023-03-20T05:42:42.113Z,9.63
2023-03-20T05:45:11.174Z,9.53
2023-03-20T05:47:39.246Z,9.00
2023-03-20T05:50:07.973Z,9.57
2023-03-20T05:52:37.379Z,10.63
2023-03-20T05:55:05.859Z,11.53
2023-03-20T05:57:33.924Z,10.67
2023-03-20T06:00:01.964Z,11.07
2023-03-20T06:02:30.121Z,10.77
2023-03-20T06:04:58.292Z,11.27
2023-03-20T06:07:26.555Z,10.77
2023-03-20T06:09:56.297Z,11.60
2023-03-20T06:12:24.449Z,11.30
2023-03-20T06:14:52.541Z,11.53
2023-03-20T06:17:20.775Z,11.10
2023-03-20T06:19:48.923Z,11.47
2023-03-20T06:22:17.216Z,11.43
2023-03-20T06:24:45.456Z,13.87
2023-03-20T06:27:15.040Z,13.57
2023-03-20T06:29:43.076Z,14.07
2023-03-20T06:32:12.426Z,14.43
2023-03-20T06:34:41.300Z,15.80
2023-03-20T06:37:09.542Z,15.27
2023-03-20T06:39:37.935Z,14.83
2023-03-20T06:42:06.276Z,14.90
2023-03-20T06:44:36.007Z,15.70
2023-03-20T06:47:04.280Z,15.60
2023-03-20T06:49:32.631Z,16.57
2023-03-20T06:52:00.848Z,17.90
2023-03-20T06:54:28.998Z,19.37
2023-03-20T06:56:57.172Z,19.60
2023-03-20T06:59:25.315Z,19.33
2023-03-20T07:01:54.865Z,19.70
2023-03-20T07:04:23.243Z,19.93
2023-03-20T07:06:51.579Z,20.50
2023-03-20T07:09:19.743Z,20.67
2023-03-20T07:11:48.072Z,18.60
2023-03-20T07:14:16.447Z,21.00
2023-03-20T07:16:44.698Z,20.30
2023-03-20T07:19:15.004Z,20.43
2023-03-20T07:21:43.462Z,20.20
2023-03-20T07:24:12.149Z,18.03
2023-03-20T07:26:41.230Z,21.50
2023-03-20T07:29:09.730Z,21.33
2023-03-20T07:31:38.145Z,21.70
2023-03-20T07:34:06.641Z,21.97
2023-03-20T07:36:36.285Z,19.80
2023-03-20T07:39:04.839Z,22.83
2023-03-20T07:41:32.976Z,21.63
2023-03-20T07:44:01.103Z,20.90
2023-03-20T07:46:29.436Z,21.57
2023-03-20T07:48:58.246Z,20.03
2023-03-20T07:51:26.527Z,19.80
2023-03-20T07:53:56.161Z,20.83
2023-03-20T07:56:24.436Z,19.47
2023-03-20T07:58:52.685Z,19.60
2023-03-20T08:01:21.195Z,21.60
2023-03-20T08:03:49.514Z,19.90
2023-03-20T08:06:17.728Z,19.07
2023-03-20T08:08:46.140Z,18.33
2023-03-20T08:11:15.596Z,19.07
2023-03-20T08:13:43.757Z,18.73
2023-03-20T08:16:12.007Z,17.13
2023-03-20T08:18:40.229Z,17.43
2023-03-20T08:21:08.805Z,16.83
2023-03-20T08:23:37.172Z,17.10
2023-03-20T08:26:05.449Z,17.50
2023-03-20T08:28:50.924Z,18.20
2023-03-20T08:31:20.031Z,17.80
2023-03-20T08:33:48.592Z,17.53
2023-03-20T08:36:19.766Z,17.50
2023-03-20T08:38:48.974Z,17.10
2023-03-20T08:41:17.598Z,16.20
2023-03-20T08:43:47.722Z,16.07
2023-03-20T08:46:16.121Z,15.43
2023-03-20T08:48:44.459Z,13.90
2023-03-20T08:51:12.802Z,15.47
2023-03-20T08:53:41.354Z,14.43
2023-03-20T08:56:11.472Z,14.60
2023-03-20T08:58:39.796Z,13.90
2023-03-20T09:01:11.058Z,13.63
2023-03-20T09:03:39.564Z,14.10
2023-03-20T09:06:08.847Z,13.90
2023-03-20T09:08:37.207Z,12.20
2023-03-20T09:11:06.921Z,12.43
2023-03-20T09:13:36.050Z,12.13
2023-03-20T09:16:04.687Z,12.17
2023-03-20T09:18:34.532Z,12.20
2023-03-20T09:21:02.866Z,12.43
2023-03-20T09:23:32.075Z,11.43
2023-03-20T09:26:00.447Z,12.03
2023-03-20T09:28:28.789Z,11.67
2023-03-20T09:30:57.954Z,11.37
2023-03-20T09:33:26.603Z,12.00
2023-03-20T09:35:56.184Z,12.40
2023-03-20T09:38:24.472Z,11.80
2023-03-20T09:40:54.936Z,12.30
2023-03-20T09:43:33.141Z,10.97
2023-03-20T09:46:11.033Z,11.53
2023-03-20T09:48:45.681Z,11.57
2023-03-20T09:51:25.258Z,10.73
2023-03-20T09:53:59.276Z,10.70
2023-03-20T09:56:31.492Z,11.03
2023-03-20T09:59:01.891Z,9.90
2023-03-20T10:01:34.771Z,10.93
2023-03-20T10:04:09.302Z,11.07
2023-03-20T10:06:39.385Z,11.33
2023-03-20T10:09:17.167Z,11.07
2023-03-20T10:11:57.755Z,11.00
2023-03-20T10:14:36.150Z,11.20
2023-03-20T10:17:28.917Z,10.77
2023-03-20T10:19:59.991Z,10.07
2023-03-20T10:22:34.389Z,9.37
2023-03-20T10:25:08.931Z,9.17
2023-03-20T10:27:41.855Z,9.13
2023-03-20T10:30:29.205Z,9.07
2023-03-20T10:33:08.277Z,8.57
2023-03-20T10:35:45.627Z,8.60
2023-03-20T10:38:25.949Z,8.30
2023-03-20T10:40:55.704Z,8.43
2023-03-20T10:43:29.564Z,7.37
2023-03-20T10:46:03.584Z,8.17
2023-03-20T10:48:35.877Z,8.20
2023-03-20T10:51:04.895Z,7.03
2023-03-20T10:53:43.234Z,7.60
2023-03-20T10:56:17.128Z,7.10
2023-03-20T10:58:48.505Z,6.43
2023-03-20T11:01:17.372Z,9.30
2023-03-20T11:03:45.698Z,15.20
2023-03-20T11:06:19.249Z,10.97
2023-03-20T11:08:52.142Z,10.57
2023-03-20T11:11:25.394Z,10.03
2023-03-20T11:13:54.138Z,8.20
2023-03-20T11:16:24.869Z,9.03
2023-03-20T11:18:55.092Z,7.27
2023-03-20T11:21:26.111Z,7.40
2023-03-20T11:23:56.628Z,9.10
2023-03-20T11:26:37.349Z,6.83
2023-03-20T11:29:08.921Z,6.27
2023-03-20T11:31:41.732Z,6.87
2023-03-20T11:34:13.529Z,7.00
2023-03-20T11:36:49.002Z,7.10
2023-03-20T11:39:27.391Z,6.43
2023-03-20T11:41:57.330Z,7.53
2023-03-20T11:44:27.492Z,6.40
2023-03-20T11:47:01.718Z,7.20
2023-03-20T11:49:29.965Z,6.73
2023-03-20T11:52:03.086Z,7.53
2023-03-20T11:54:32.898Z,6.43
2023-03-20T11:57:01.700Z,6.90
2023-03-20T11:59:34.504Z,7.20
2023-03-20T12:02:03.596Z,6.47
2023-03-20T12:04:34.039Z,7.10
2023-03-20T12:07:06.830Z,7.00
2023-03-20T12:09:43.908Z,6.60
2023-03-20T12:12:20.063Z,6.43
2023-03-20T12:14:56.110Z,6.97
2023-03-20T12:17:45.357Z,6.40
2023-03-20T12:20:25.134Z,6.87
2023-03-20T12:23:01.247Z,6.47
2023-03-20T12:25:36.530Z,6.93
2023-03-20T12:28:13.604Z,6.23
2023-03-20T12:30:55.815Z,6.27
2023-03-20T12:33:36.338Z,7.10
2023-03-20T12:36:07.388Z,7.07
2023-03-20T12:38:36.456Z,6.53
2023-03-20T12:41:13.406Z,9.00
2023-03-20T12:43:55.617Z,6.87
2023-03-20T12:46:32.967Z,6.87
2023-03-20T12:49:14.149Z,7.90
2023-03-20T12:51:51.951Z,7.67
2023-03-20T12:54:29.389Z,7.57
2023-03-20T12:57:10.349Z,7.70
2023-03-20T12:59:50.779Z,8.27
2023-03-20T13:02:35.393Z,8.30
2023-03-20T13:05:17.362Z,8.87
2023-03-20T13:08:03.963Z,7.93
2023-03-20T13:10:39.137Z,9.33
2023-03-20T13:13:21.616Z,8.43
2023-03-20T13:15:59.931Z,8.73
2023-03-20T13:18:38.523Z,8.47
2023-03-20T13:21:14.112Z,8.30
2023-03-20T13:23:49.859Z,8.87
2023-03-20T13:26:28.020Z,7.93
2023-03-20T13:29:06.869Z,8.43
2023-03-20T13:31:46.014Z,7.60
2023-03-20T13:34:32.937Z,8.07
2023-03-20T13:37:23.419Z,8.67
2023-03-20T13:40:04.597Z,9.20
2023-03-20T13:42:38.379Z,8.30
2023-03-20T13:45:21.240Z,9.23
2023-03-20T13:47:50.790Z,8.37
2023-03-20T13:50:40.316Z,8.97
2023-03-20T13:53:18.217Z,9.30
2023-03-20T13:55:53.901Z,9.17
2023-03-20T13:58:45.852Z,9.37
2023-03-20T14:01:22.462Z,8.80
2023-03-20T14:03:52.503Z,9.70
2023-03-20T14:06:50.371Z,9.47
2023-03-20T14:09:31.400Z,9.23
2023-03-20T14:12:03.559Z,9.33
2023-03-20T14:14:33.800Z,9.90
2023-03-20T14:17:15.340Z,10.03
2023-03-20T14:19:43.889Z,10.17
2023-03-20T14:22:18.828Z,10.13
2023-03-20T14:24:56.092Z,9.27
2023-03-20T14:27:42.798Z,10.50
2023-03-20T14:30:41.427Z,9.67
2023-03-20T14:33:26.925Z,10.90
2023-03-20T14:36:17.499Z,9.57
2023-03-20T14:38:54.764Z,10.27
2023-03-20T14:41:31.571Z,10.07
2023-03-20T14:44:21.068Z,10.67
2023-03-20T14:46:54.760Z,10.53
2023-03-20T14:49:46.909Z,9.27
2023-03-20T14:52:39.015Z,8.70
2023-03-20T14:55:30.570Z,10.73
2023-03-20T14:58:02.909Z,9.87
2023-03-20T15:00:36.223Z,10.07
2023-03-20T15:03:09.711Z,10.77
2023-03-20T15:05:40.772Z,9.40
2023-03-20T15:08:11.238Z,10.07
2023-03-20T15:10:47.015Z,10.90
2023-03-20T15:13:16.912Z,9.97
2023-03-20T15:15:55.258Z,10.23
2023-03-20T15:18:25.332Z,10.13
2023-03-20T15:20:57.795Z,10.53
2023-03-20T15:23:26.749Z,9.43
2023-03-20T15:25:55.519Z,9.27
2023-03-20T15:28:25.939Z,9.43
2023-03-20T15:30:57.372Z,8.60
2023-03-20T15:33:29.556Z,8.37
2023-03-20T15:35:59.690Z,9.47
2023-03-20T15:38:34.021Z,9.77
2023-03-20T15:41:05.806Z,10.57
2023-03-20T15:43:35.813Z,10.70
2023-03-20T15:46:17.812Z,11.00
2023-03-20T15:48:49.613Z,11.37
2023-03-20T15:51:21.207Z,11.20
2023-03-20T15:53:50.609Z,10.47
2023-03-20T15:56:21.171Z,10.23
2023-03-20T15:58:53.065Z,10.57
2023-03-20T16:01:24.174Z,9.20
2023-03-20T16:03:53.803Z,10.50
2023-03-20T16:06:25.622Z,11.07
2023-03-20T16:09:02.269Z,10.40
2023-03-20T16:11:40.971Z,10.07
2023-03-20T16:14:14.795Z,9.40
2023-03-20T16:16:43.380Z,10.83
2023-03-20T16:19:15.185Z,10.30
2023-03-20T16:21:50.682Z,10.80
2023-03-20T16:24:22.937Z,11.33
2023-03-20T16:26:53.370Z,10.83
2023-03-20T16:29:24.139Z,11.10
2023-03-20T16:31:58.574Z,10.70
2023-03-20T16:34:32.351Z,11.60
2023-03-20T16:37:07.710Z,11.03
2023-03-20T16:39:35.946Z,10.93
2023-03-20T16:42:12.835Z,11.03
2023-03-20T16:44:43.226Z,10.13
2023-03-20T16:47:21.803Z,10.10
2023-03-20T16:50:24.358Z,9.53
2023-03-20T16:52:59.175Z,11.30
2023-03-20T16:55:31.484Z,10.87
2023-03-20T16:58:02.263Z,9.90
2023-03-20T17:00:32.951Z,10.93
2023-03-20T17:03:08.420Z,10.33
2023-03-20T17:05:54.613Z,9.30
2023-03-20T17:08:37.226Z,10.83
2023-03-20T17:11:12.817Z,9.60
2023-03-20T17:13:42.385Z,9.57
2023-03-20T17:16:15.809Z,10.00
2023-03-20T17:18:46.852Z,9.20
2023-03-20T17:21:15.037Z,9.27
2023-03-20T17:23:44.904Z,9.67
2023-03-20T17:26:13.797Z,10.97
2023-03-20T17:28:42.573Z,10.23
2023-03-20T17:31:12.771Z,11.17
2023-03-20T17:33:41.038Z,10.83
2023-03-20T17:36:17.423Z,9.50
2023-03-20T17:38:47.208Z,10.20
2023-03-20T17:41:16.867Z,9.47
2023-03-20T17:43:45.805Z,10.43
2023-03-20T17:46:19.249Z,9.90
2023-03-20T17:48:47.790Z,11.00
2023-03-20T17:51:16.077Z,10.80
2023-03-20T17:53:44.679Z,10.73
2023-03-20T17:56:16.163Z,11.27
2023-03-20T17:58:45.722Z,11.10
2023-03-20T18:01:14.711Z,11.57
2023-03-20T18:03:43.240Z,11.93
2023-03-20T18:06:19.129Z,10.93
2023-03-20T18:08:47.342Z,10.10
2023-03-20T18:11:17.029Z,10.77
2023-03-20T18:13:45.286Z,9.63
2023-03-20T18:16:18.408Z,10.37
2023-03-20T18:18:47.386Z,10.60
2023-03-20T18:21:16.981Z,10.13
2023-03-20T18:23:45.684Z,11.73
2023-03-20T18:26:22.307Z,10.87
2023-03-20T18:28:51.683Z,11.20
2023-03-20T18:31:19.931Z,11.43
2023-03-20T18:33:49.219Z,11.07
2023-03-20T18:36:19.211Z,10.53
2023-03-20T18:38:47.964Z,11.00
2023-03-20T18:41:16.735Z,10.50
2023-03-20T18:43:47.296Z,9.47
2023-03-20T18:46:16.922Z,9.67
2023-03-20T18:48:45.822Z,10.20
2023-03-20T18:51:14.938Z,9.33
2023-03-20T18:53:43.841Z,9.60
2023-03-20T18:56:15.452Z,10.60
2023-03-20T18:58:45.689Z,10.30
2023-03-20T19:01:15.632Z,10.57
2023-03-20T19:03:44.776Z,11.27
2023-03-20T19:06:16.277Z,10.03
2023-03-20T19:08:44.946Z,10.93
2023-03-20T19:11:17.818Z,12.03
2023-03-20T19:13:51.143Z,11.33
2023-03-20T19:16:25.380Z,11.23
2023-03-20T19:18:54.772Z,10.47
2023-03-20T19:21:26.339Z,10.70
2023-03-20T19:23:55.504Z,10.93
2023-03-20T19:26:25.934Z,11.43
2023-03-20T19:28:56.393Z,11.13
2023-03-20T19:31:25.652Z,11.97
2023-03-20T19:33:56.034Z,12.27
2023-03-20T19:36:27.700Z,12.40
2023-03-20T19:38:57.238Z,11.07
2023-03-20T19:41:25.655Z,11.07
2023-03-20T19:43:55.793Z,11.23
2023-03-20T19:46:39.254Z,11.47
2023-03-20T19:49:07.840Z,12.20
2023-03-20T19:51:36.035Z,11.40
2023-03-20T19:54:04.174Z,11.30
2023-03-20T19:56:34.554Z,11.57
2023-03-20T19:59:05.775Z,11.30
2023-03-20T20:01:34.070Z,12.10
2023-03-20T20:04:02.399Z,11.53
2023-03-20T20:06:32.786Z,11.77
2023-03-20T20:09:01.713Z,11.00
2023-03-20T20:11:30.420Z,10.83
2023-03-20T20:14:08.745Z,10.27
2023-03-20T20:16:42.526Z,9.87
2023-03-20T20:19:10.906Z,10.60
2023-03-20T20:24:27.515Z,10.53
2023-03-20T20:27:15.176Z,10.67
2023-03-20T20:29:46.907Z,9.43
2023-03-20T20:32:16.529Z,9.33
2023-03-20T20:40:25.124Z,8.80
2023-03-20T20:42:56.285Z,7.63
2023-03-20T20:45:26.383Z,7.87
2023-03-20T20:47:56.696Z,52.13
2023-03-20T20:50:28.313Z,28.90
2023-03-20T20:52:57.019Z,11.03
2023-03-20T20:55:25.580Z,8.57
2023-03-20T20:57:55.503Z,9.27
2023-03-20T21:00:41.309Z,8.07
2023-03-20T21:03:14.426Z,7.30
2023-03-20T21:05:43.476Z,7.83
2023-03-20T21:08:14.155Z,8.00
2023-03-20T21:10:43.108Z,7.67
2023-03-20T21:13:11.535Z,8.20
2023-03-20T21:15:40.513Z,7.10
2023-03-20T21:18:09.410Z,8.17
2023-03-20T21:20:39.634Z,7.90
2023-03-20T21:23:08.096Z,7.70
2023-03-20T21:25:40.696Z,8.53
2023-03-20T21:28:11.477Z,7.80
2023-03-20T21:30:54.533Z,7.60
2023-03-20T21:33:30.770Z,7.43
2023-03-20T21:36:00.753Z,7.73
2023-03-20T21:39:02.095Z,7.83
2023-03-20T21:41:18.854Z,8.37
2023-03-20T21:43:47.851Z,8.73
2023-03-20T21:46:52.590Z,7.50
2023-03-20T22:03:28.901Z,11.40
2023-03-20T22:09:48.579Z,9.10
2023-03-20T22:15:21.495Z,8.63
2023-03-20T22:17:56.066Z,9.83
2023-03-20T22:32:11.076Z,8.30
2023-03-20T22:35:03.063Z,9.07
2023-03-20T22:40:42.114Z,9.33
2023-03-20T22:43:17.285Z,8.37
2023-03-20T22:45:42.905Z,8.67
2023-03-20T22:48:16.520Z,9.23
2023-03-20T22:50:47.229Z,8.10
2023-03-20T22:53:15.909Z,7.83
2023-03-20T22:55:45.655Z,7.80
2023-03-20T22:58:17.280Z,8.67
2023-03-20T23:00:45.638Z,8.87
2023-03-20T23:03:25.627Z,9.57
2023-03-20T23:06:07.691Z,9.50
2023-03-20T23:08:48.749Z,9.90
2023-03-20T23:11:21.686Z,9.43
2023-03-20T23:13:52.299Z,9.63
2023-03-20T23:16:21.838Z,9.53
2023-03-20T23:18:50.880Z,10.40
2023-03-20T23:21:21.017Z,10.17
2023-03-20T23:23:49.723Z,9.00
2023-03-20T23:26:22.313Z,9.97
2023-03-20T23:28:53.590Z,10.53
2023-03-20T23:31:25.635Z,9.57
2023-03-20T23:33:56.614Z,9.40
2023-03-20T23:36:36.025Z,14.60
2023-03-20T23:39:06.673Z,11.57
2023-03-20T23:42:02.421Z,10.27
2023-03-20T23:44:26.155Z,11.47
2023-03-20T23:46:55.631Z,10.33
2023-03-20T23:49:24.406Z,10.33
2023-03-20T23:51:53.283Z,10.37
2023-03-20T23:54:21.916Z,9.87
2023-03-20T23:56:50.746Z,9.33
2023-03-20T23:59:22.436Z,10.40
